AKDT,Max TemperatureF,Mean TemperatureF,Min TemperatureF,Max Dew PointF,MeanDew PointF,Min DewpointF,Max Humidity, Mean Humidity, Min Humidity, Max Sea Level PressureIn, Mean Sea Level PressureIn, Min Sea Level PressureIn, Max VisibilityMiles, Mean VisibilityMiles, Min VisibilityMiles, Max Wind SpeedMPH, Mean Wind SpeedMPH, Max Gust SpeedMPH,PrecipitationIn, CloudCover, Events, WindDirDegrees
2013-3-1,-25,-12,-23,-8,-17,-28,83,74,59,30.30,30.11,29.89,10,9,2,10,7,,0.00,4,Snow,209
2013-3-2,-4,-12,-25,-12,-23,-31,79,71,49,30.38,30.34,30.22,10,10,9,12,3,,0.00,2,Snow,7
2013-3-3,18,7,-4,8,1,-7,87,72,61,30.46,30.40,30.38,10,10,10,15,8,22,0.00,3,,90
2013-3-4,23,22,17,21,13,8,93,72,58,30.49,30.36,30.14,10,8,2,20,11,26,0.00,7,Snow,95
2013-3-5,26,26,23,23,22,17,96,85,66,30.27,30.09,29.99,10,6,2,20,15,28,0.00,7,Snow,97
2013-3-6,21,22,19,18,17,12,93,81,63,29.99,29.88,29.78,10,7,2,18,11,25,0.00,8,Snow,99
2013-3-7,26,24,19,25,21,18,93,85,64,29.95,29.60,29.36,10,8,1,23,10,37,0.00,7,Snow,86
2013-3-8,28,30,26,27,21,17,93,73,52,29.62,29.52,29.38,10,9,4,21,13,31,0.00,8,Snow,91
2013-3-9,10,18,8,25,21,5,96,87,74,30.11,29.76,29.53,10,5,2,16,11,25,0.00,7,Snow,178
2013-3-10,-5,11,-4,13,5,-7,92,82,62,30.70,30.38,30.12,10,10,9,10,4,,0.00,3,Snow,209
2013-3-11,-11,-2,-11,-5,-9,-17,87,76,55,30.93,30.86,30.70,10,10,10,9,5,,0.00,0,,215
2013-3-12,-5,-2,-13,-3,-11,-18,86,75,56,30.92,30.81,30.66,10,10,10,4,0,,0.00,0,,277
2013-3-13,8,0,-11,0,-8,-16,87,69,49,30.66,30.55,30.49,10,10,5,6,2,,0.00,0,,38
2013-3-14,12,4,-6,-2,-8,-11,79,56,37,30.60,30.49,30.36,10,10,10,12,4,21,0.00,0,,80
2013-3-15,14,14,7,-1,-7,-11,44,39,36,30.39,30.21,30.04,10,10,10,23,13,34,0.00,0,,81
2013-3-16,15,16,10,0,-3,-5,51,45,37,30.35,30.22,30.09,10,10,10,18,14,28,0.00,0,,89
2013-3-17,7,14,3,2,-2,-6,66,51,37,30.53,30.48,30.37,10,10,10,14,6,,0.00,0,,57
2013-3-18,6,13,3,0,-2,-6,80,54,32,30.49,30.42,30.35,10,10,9,20,6,32,0.00,0,,3
2013-3-19,0,7,-2,-2,-6,-10,79,58,41,30.51,30.46,30.31,10,10,10,14,7,22,0.00,0,,253
2013-3-20,-9,-2,-9,0,-6,-13,92,83,73,30.29,30.03,29.89,10,6,0,10,5,,0.00,7,Fog-Snow,256
2013-3-21,-11,-10,-18,-12,-18,-22,83,70,51,30.22,30.16,30.06,10,10,7,8,4,,0.00,1,,200
2013-3-22,-5,-6,-17,-8,-15,-22,84,68,44,30.21,30.03,29.88,10,8,2,17,4,23,0.00,6,Snow,314
2013-3-23,-9,-8,-16,-9,-12,-22,84,73,60,30.22,30.06,29.98,10,6,2,15,6,21,0.00,5,Snow,220
2013-3-24,-16,-6,-18,-12,-16,-24,86,73,41,30.27,30.19,30.09,10,8,4,8,4,,0.00,3,Snow,74
2013-3-25,-14,-14,-26,-17,-22,-31,82,66,45,30.21,30.12,30.04,10,10,10,9,4,,0.00,1,,259
2013-3-26,-9,-8,-18,-10,-17,-25,81,71,49,30.17,30.11,30.04,10,10,9,8,4,,0.00,1,Snow,207
2013-3-27,-11,-8,-17,-12,-17,-22,84,71,55,30.40,30.31,30.19,10,9,2,8,5,,0.00,5,Snow,189
2013-3-28,8,-6,-22,-4,-15,-27,82,63,46,30.34,30.21,30.08,10,10,9,14,4,18,0.00,1,Snow,58
2013-3-29,17,15,6,18,10,0,88,79,67,30.13,29.99,29.91,9,6,2,17,4,22,0.00,8,Snow,26
2013-3-30,6,13,7,16,9,3,93,84,71,30.41,30.21,30.04,10,8,2,13,4,,0.00,8,Snow,205
2013-3-31,8,16,3,14,5,1,92,80,55,30.45,30.37,30.29,10,6,2,8,3,,0.00,8,Snow,202